Time;durP1;ratioP1;P1;durP2;ratioP2;P2;SDS_P1;SDS_P2;PMS_P1;PMS_P2;Temp;Humidity;BMP_temperature;BMP_pressure;BME280_temperature;BME280_humidity;BME280_pressure;Samples;Min_cycle;Max_cycle;Signal;HPM_P1;HPM_P2
2024/02/28 00:00:19;;;;;;;59.10;35.35;;;3.40;99.90;;;;;;468106;251;27998;-72
2024/02/28 00:02:20;;;;;;;67.03;36.22;;;3.40;99.90;;;;;;476997;249;27940;-72
2024/02/28 00:04:22;;;;;;;73.20;36.35;;;3.40;99.90;;;;;;468111;251;27510;-73
2024/02/28 00:06:23;;;;;;;55.53;33.70;;;3.40;99.90;;;;;;476984;249;27445;-72
2024/02/28 00:08:24;;;;;;;68.55;35.53;;;3.40;99.90;;;;;;468012;251;27514;-73
2024/02/28 00:10:25;;;;;;;55.28;32.80;;;3.50;99.90;;;;;;476940;249;27415;-72
2024/02/28 00:12:27;;;;;;;59.88;33.92;;;3.50;99.90;;;;;;468073;251;27473;-73
2024/02/28 00:14:28;;;;;;;59.58;34.33;;;3.50;99.90;;;;;;476948;249;27934;-73
2024/02/28 00:16:29;;;;;;;56.85;33.80;;;3.40;99.90;;;;;;468084;251;27955;-72
2024/02/28 00:18:31;;;;;;;60.00;34.05;;;3.40;99.90;;;;;;476951;249;27438;-73
2024/02/28 00:20:32;;;;;;;61.88;33.65;;;3.40;99.90;;;;;;468094;251;27414;-72
2024/02/28 00:22:33;;;;;;;65.20;36.15;;;3.40;99.90;;;;;;476994;249;27524;-72
2024/02/28 00:24:34;;;;;;;54.33;31.45;;;3.30;99.90;;;;;;468083;251;27501;-72
2024/02/28 00:26:35;;;;;;;54.55;29.90;;;3.30;99.90;;;;;;476970;249;27454;-72
2024/02/28 00:28:37;;;;;;;56.33;32.42;;;3.30;99.90;;;;;;468093;251;27450;-74
2024/02/28 00:30:38;;;;;;;48.67;29.70;;;3.30;99.90;;;;;;476990;249;27871;-72
2024/02/28 00:32:39;;;;;;;52.75;29.85;;;3.30;99.90;;;;;;468108;251;28066;-72
2024/02/28 00:34:41;;;;;;;65.43;37.90;;;3.20;99.90;;;;;;476999;249;27445;-72
2024/02/28 00:36:42;;;;;;;54.40;30.02;;;3.20;99.90;;;;;;468130;251;27462;-72
2024/02/28 00:38:43;;;;;;;66.90;37.13;;;3.20;99.90;;;;;;476950;249;27561;-73
2024/02/28 00:40:44;;;;;;;64.80;34.65;;;3.10;99.90;;;;;;468121;251;27466;-72
2024/02/28 00:42:46;;;;;;;65.87;34.83;;;3.00;99.90;;;;;;476973;249;27560;-72
2024/02/28 00:44:47;;;;;;;50.35;30.17;;;2.90;99.90;;;;;;468153;251;28016;-73
2024/02/28 00:46:48;;;;;;;56.53;31.42;;;2.80;99.90;;;;;;476992;249;28008;-72
2024/02/28 00:48:49;;;;;;;49.97;30.30;;;2.80;99.90;;;;;;468110;251;27456;-73
2024/02/28 00:50:51;;;;;;;57.13;32.60;;;2.80;99.90;;;;;;476995;249;27397;-72
2024/02/28 00:52:52;;;;;;;50.15;28.15;;;2.80;99.90;;;;;;468032;251;27442;-72
2024/02/28 00:54:53;;;;;;;52.25;30.30;;;2.70;99.90;;;;;;477011;249;27573;-73
2024/02/28 00:56:54;;;;;;;58.55;33.40;;;2.70;99.90;;;;;;468068;251;27421;-72
2024/02/28 00:58:56;;;;;;;64.62;34.92;;;2.70;99.90;;;;;;476974;249;27891;-73
2024/02/28 01:00:57;;;;;;;52.38;30.15;;;2.70;99.90;;;;;;468079;251;29774;-72
2024/02/28 01:02:58;;;;;;;50.63;29.37;;;2.70;99.90;;;;;;477011;249;27462;-73
2024/02/28 01:04:59;;;;;;;42.67;26.73;;;2.60;99.90;;;;;;468101;251;27581;-73
2024/02/28 01:07:01;;;;;;;49.13;29.02;;;2.40;99.90;;;;;;476907;249;27398;-72
2024/02/28 01:09:02;;;;;;;47.38;27.62;;;2.30;99.90;;;;;;468034;254;27472;-72
2024/02/28 01:11:03;;;;;;;49.08;28.83;;;2.30;99.90;;;;;;476983;249;27835;-74
2024/02/28 01:13:04;;;;;;;50.42;28.75;;;2.20;99.90;;;;;;468094;251;27465;-73
2024/02/28 01:15:06;;;;;;;53.95;30.25;;;2.20;99.90;;;;;;476971;249;27925;-72
2024/02/28 01:17:07;;;;;;;47.67;27.37;;;2.20;99.90;;;;;;468019;251;27965;-72
2024/02/28 01:19:08;;;;;;;47.58;27.70;;;2.10;99.90;;;;;;476969;249;27418;-73
2024/02/28 01:21:09;;;;;;;47.15;28.17;;;2.20;99.90;;;;;;468117;251;27491;-74
2024/02/28 01:23:11;;;;;;;46.78;26.85;;;2.20;99.90;;;;;;476958;249;27478;-72
2024/02/28 01:25:12;;;;;;;53.70;28.30;;;2.20;99.90;;;;;;468066;251;27466;-72
2024/02/28 01:27:13;;;;;;;46.35;26.50;;;2.20;99.90;;;;;;476931;249;27494;-72
2024/02/28 01:29:14;;;;;;;43.65;26.62;;;2.10;99.90;;;;;;468137;253;27432;-72
2024/02/28 01:31:16;;;;;;;51.65;29.35;;;2.10;99.90;;;;;;477007;249;27990;-73
2024/02/28 01:33:17;;;;;;;62.25;33.30;;;2.10;99.90;;;;;;468092;251;27948;-72
2024/02/28 01:35:18;;;;;;;54.78;30.55;;;2.10;99.90;;;;;;476970;249;27477;-72
2024/02/28 01:37:19;;;;;;;53.42;30.37;;;2.30;99.90;;;;;;468095;251;27452;-72
2024/02/28 01:39:21;;;;;;;67.87;36.17;;;2.40;99.90;;;;;;476990;249;27402;-72
2024/02/28 01:41:22;;;;;;;52.28;30.33;;;2.40;99.90;;;;;;468132;251;27525;-73
2024/02/28 01:43:23;;;;;;;56.03;32.03;;;2.40;99.90;;;;;;476981;249;27403;-72
2024/02/28 01:45:25;;;;;;;50.65;29.17;;;2.40;99.90;;;;;;468113;251;27967;-72
2024/02/28 01:47:26;;;;;;;46.37;26.98;;;2.30;99.90;;;;;;476968;249;27921;-73
2024/02/28 01:49:27;;;;;;;53.03;29.75;;;2.30;99.90;;;;;;468112;251;27552;-72
2024/02/28 01:51:28;;;;;;;55.85;31.17;;;2.30;99.90;;;;;;476963;249;27544;-73
2024/02/28 01:53:30;;;;;;;52.05;29.12;;;2.20;99.90;;;;;;468002;251;27414;-72
2024/02/28 01:55:31;;;;;;;50.72;28.70;;;2.10;99.90;;;;;;476964;249;27568;-72
2024/02/28 01:57:32;;;;;;;44.40;25.92;;;2.00;99.90;;;;;;468045;251;27457;-73
2024/02/28 01:59:33;;;;;;;51.00;29.48;;;1.90;99.90;;;;;;476949;249;27489;-72
2024/02/28 02:01:35;;;;;;;46.37;27.55;;;1.80;99.90;;;;;;468035;251;27898;-72
2024/02/28 02:03:36;;;;;;;46.17;26.35;;;1.90;99.90;;;;;;476989;249;28072;-73
2024/02/28 02:05:37;;;;;;;48.03;26.98;;;1.80;99.90;;;;;;468114;251;27466;-72
2024/02/28 02:07:39;;;;;;;50.92;27.67;;;1.80;99.90;;;;;;476919;249;27446;-73
2024/02/28 02:09:40;;;;;;;49.53;29.15;;;1.70;99.90;;;;;;468055;251;27424;-73
2024/02/28 02:11:41;;;;;;;51.05;28.05;;;1.70;99.90;;;;;;476939;249;27454;-72
2024/02/28 02:13:42;;;;;;;48.72;28.10;;;1.70;99.90;;;;;;468098;251;27458;-73
2024/02/28 02:15:43;;;;;;;50.10;28.52;;;1.60;99.90;;;;;;476966;249;27521;-72
2024/02/28 02:17:45;;;;;;;48.75;28.20;;;1.60;99.90;;;;;;468039;251;28038;-73
2024/02/28 02:19:46;;;;;;;51.40;27.02;;;1.50;99.90;;;;;;476974;249;27829;-72
2024/02/28 02:21:47;;;;;;;46.20;25.62;;;1.50;99.90;;;;;;468130;251;27466;-72
2024/02/28 02:23:48;;;;;;;51.03;27.85;;;1.60;99.90;;;;;;476753;249;27450;-72
2024/02/28 02:25:50;;;;;;;46.60;26.02;;;1.50;99.90;;;;;;468121;251;27486;-72
2024/02/28 02:27:51;;;;;;;49.25;27.50;;;1.40;99.90;;;;;;476923;249;27489;-73
2024/02/28 02:29:52;;;;;;;49.95;29.45;;;1.50;99.90;;;;;;468133;251;27493;-74
2024/02/28 02:31:53;;;;;;;46.08;26.70;;;1.50;99.90;;;;;;476996;249;27895;-72
2024/02/28 02:33:55;;;;;;;43.00;26.33;;;1.50;99.90;;;;;;468132;251;28054;-72
2024/02/28 02:35:56;;;;;;;43.60;24.70;;;1.50;99.90;;;;;;476980;249;27406;-72
2024/02/28 02:37:57;;;;;;;47.95;26.65;;;1.50;99.90;;;;;;468079;251;27451;-72
2024/02/28 02:39:58;;;;;;;46.90;25.65;;;1.60;99.90;;;;;;477018;249;27445;-74
2024/02/28 02:42:00;;;;;;;46.28;25.40;;;1.60;99.90;;;;;;468122;251;27435;-72
2024/02/28 02:44:01;;;;;;;52.25;26.65;;;1.60;99.90;;;;;;476966;249;27584;-72
2024/02/28 02:46:02;;;;;;;47.67;27.77;;;1.60;99.90;;;;;;468094;251;27484;-73
2024/02/28 02:48:03;;;;;;;51.13;28.15;;;1.60;99.90;;;;;;476992;249;27920;-72
2024/02/28 02:50:05;;;;;;;53.10;28.55;;;1.60;99.90;;;;;;468122;251;27921;-73
2024/02/28 02:52:06;;;;;;;60.05;32.72;;;1.60;99.90;;;;;;476990;249;27390;-72
2024/02/28 02:54:07;;;;;;;49.88;27.17;;;1.50;99.90;;;;;;468003;251;27459;-72
2024/02/28 02:56:09;;;;;;;55.55;29.05;;;1.50;99.90;;;;;;476996;249;27445;-74
2024/02/28 02:58:10;;;;;;;51.95;28.15;;;1.60;99.90;;;;;;468097;251;27426;-72
2024/02/28 03:00:11;;;;;;;53.67;27.77;;;1.60;99.90;;;;;;476982;249;27445;-73
2024/02/28 03:02:12;;;;;;;62.38;31.17;;;1.60;99.90;;;;;;468086;251;27419;-72
2024/02/28 03:04:14;;;;;;;112.45;32.70;;;1.60;99.90;;;;;;476981;249;27870;-72
2024/02/28 03:06:15;;;;;;;58.80;29.55;;;1.60;99.90;;;;;;468153;251;27933;-73
2024/02/28 03:08:16;;;;;;;194.95;38.42;;;1.60;99.90;;;;;;476955;249;27391;-72
2024/02/28 03:10:17;;;;;;;64.82;28.50;;;1.60;99.90;;;;;;468076;251;27466;-72
2024/02/28 03:12:19;;;;;;;118.95;32.15;;;1.60;99.90;;;;;;476962;249;27466;-72
2024/02/28 03:14:22;;;;;;;225.18;36.28;;;1.60;99.90;;;;;;468119;251;27426;-73
2024/02/28 03:16:22;;;;;;;61.15;30.15;;;1.50;99.90;;;;;;476896;249;27552;-73
2024/02/28 03:18:22;;;;;;;182.52;43.17;;;1.50;99.90;;;;;;468062;251;27867;-72
2024/02/28 03:20:24;;;;;;;380.12;45.53;;;1.50;99.90;;;;;;476957;249;27916;-72
2024/02/28 03:22:25;;;;;;;67.18;30.62;;;1.50;99.90;;;;;;468092;251;27466;-73
2024/02/28 03:24:26;;;;;;;83.68;31.65;;;1.50;99.90;;;;;;476980;249;27407;-73
2024/02/28 03:26:27;;;;;;;94.22;28.92;;;1.50;99.90;;;;;;468100;251;27540;-72
2024/02/28 03:28:29;;;;;;;107.18;31.70;;;1.40;99.90;;;;;;476898;249;27395;-72
2024/02/28 03:30:30;;;;;;;52.88;27.10;;;1.30;99.90;;;;;;468111;251;28025;-73
2024/02/28 03:32:31;;;;;;;58.45;27.52;;;1.20;99.90;;;;;;476982;249;27944;-73
2024/02/28 03:34:32;;;;;;;64.28;32.00;;;1.20;99.90;;;;;;468090;254;27481;-72
2024/02/28 03:36:34;;;;;;;57.90;28.83;;;1.10;99.90;;;;;;476967;249;27434;-72
2024/02/28 03:38:35;;;;;;;55.83;29.52;;;1.20;99.90;;;;;;468047;251;27432;-72
2024/02/28 03:40:36;;;;;;;53.42;27.92;;;1.20;99.90;;;;;;477015;249;27397;-72
2024/02/28 03:42:38;;;;;;;55.22;28.98;;;1.20;99.90;;;;;;468111;251;27558;-72
2024/02/28 03:44:39;;;;;;;51.97;28.60;;;1.20;99.90;;;;;;476842;249;27393;-72
2024/02/28 03:46:40;;;;;;;49.80;27.13;;;1.10;99.90;;;;;;468004;251;27929;-73
2024/02/28 03:48:41;;;;;;;47.33;25.88;;;1.10;99.90;;;;;;476977;249;28113;-73
2024/02/28 03:50:42;;;;;;;55.15;30.25;;;1.10;99.90;;;;;;468123;251;27414;-72
2024/02/28 03:52:44;;;;;;;51.28;28.42;;;1.10;99.90;;;;;;476918;249;27554;-72
2024/02/28 03:54:45;;;;;;;57.65;29.45;;;1.10;99.90;;;;;;468098;251;27406;-73
2024/02/28 03:56:46;;;;;;;52.50;27.02;;;1.10;99.90;;;;;;476971;249;27438;-72
2024/02/28 03:58:47;;;;;;;88.45;33.13;;;0.90;99.90;;;;;;476546;249;27478;-74
2024/02/28 04:00:49;;;;;;;132.98;29.70;;;0.80;99.90;;;;;;477026;249;27441;-72
2024/02/28 04:02:50;;;;;;;168.45;34.38;;;0.70;99.90;;;;;;468106;251;27949;-72
2024/02/28 04:04:51;;;;;;;68.87;28.15;;;0.60;99.90;;;;;;476993;249;27930;-72
2024/02/28 04:06:53;;;;;;;75.37;32.55;;;0.60;99.90;;;;;;468104;251;27512;-72
2024/02/28 04:08:54;;;;;;;77.70;32.20;;;0.60;99.90;;;;;;477030;249;27553;-72
2024/02/28 04:10:55;;;;;;;60.42;32.05;;;0.60;99.90;;;;;;468139;251;27410;-72
2024/02/28 04:12:56;;;;;;;48.58;28.40;;;0.50;99.90;;;;;;476970;249;27470;-72
2024/02/28 04:14:58;;;;;;;50.42;27.23;;;0.60;99.90;;;;;;468142;251;27570;-73
2024/02/28 04:16:59;;;;;;;49.72;26.77;;;0.70;99.90;;;;;;476982;249;27850;-72
2024/02/28 04:19:00;;;;;;;51.50;27.13;;;0.80;99.90;;;;;;468140;251;27943;-72
2024/02/28 04:21:01;;;;;;;52.60;29.12;;;0.80;99.90;;;;;;476962;249;27378;-72
2024/02/28 04:23:03;;;;;;;54.70;28.83;;;0.80;99.90;;;;;;468115;251;27558;-72
2024/02/28 04:25:04;;;;;;;47.05;25.27;;;0.90;99.90;;;;;;477023;249;27494;-74
2024/02/28 04:27:05;;;;;;;42.58;23.55;;;0.80;99.90;;;;;;468045;253;27435;-72
2024/02/28 04:29:12;;;;;;;45.00;24.83;;;0.70;99.90;;;;;;476956;249;27478;-72
2024/02/28 04:31:09;;;;;;;71.85;27.40;;;0.60;99.90;;;;;;467661;254;27462;-72
2024/02/28 04:33:09;;;;;;;44.15;25.62;;;0.60;99.90;;;;;;476920;249;27906;-72
2024/02/28 04:35:10;;;;;;;44.40;25.20;;;0.50;99.90;;;;;;468111;251;27973;-73
2024/02/28 04:37:11;;;;;;;44.00;24.27;;;0.60;99.90;;;;;;476915;249;27478;-72
2024/02/28 04:39:13;;;;;;;45.00;24.55;;;0.60;99.90;;;;;;468076;251;27456;-72
2024/02/28 04:41:14;;;;;;;45.60;24.90;;;0.60;99.90;;;;;;477002;249;27761;-72
2024/02/28 04:43:15;;;;;;;41.42;24.40;;;0.70;99.90;;;;;;468080;254;27434;-72
2024/02/28 04:45:16;;;;;;;42.88;25.10;;;0.80;99.90;;;;;;476987;249;27444;-73
2024/02/28 04:47:18;;;;;;;42.83;24.27;;;0.80;99.90;;;;;;468058;251;27923;-72
2024/02/28 04:49:19;;;;;;;45.33;27.15;;;0.80;99.90;;;;;;476982;249;28006;-72
2024/02/28 04:51:20;;;;;;;47.28;26.25;;;0.90;99.90;;;;;;468101;251;28025;-74
2024/02/28 04:53:21;;;;;;;45.25;24.33;;;0.80;99.90;;;;;;476966;249;27422;-72
2024/02/28 04:55:23;;;;;;;48.60;25.58;;;0.80;99.90;;;;;;468062;251;27564;-72
2024/02/28 04:57:24;;;;;;;47.25;26.25;;;0.80;99.90;;;;;;476909;249;27419;-72
2024/02/28 04:59:25;;;;;;;42.67;23.50;;;0.80;99.90;;;;;;468113;251;27517;-72
2024/02/28 05:01:28;;;;;;;43.22;24.12;;;0.80;99.90;;;;;;477003;249;27442;-73
2024/02/28 05:03:28;;;;;;;46.63;26.10;;;0.80;99.90;;;;;;468058;251;27930;-72
2024/02/28 05:05:29;;;;;;;46.67;27.10;;;0.80;99.90;;;;;;476921;249;27960;-72
2024/02/28 05:07:30;;;;;;;43.20;24.33;;;0.90;99.90;;;;;;468089;251;27602;-72
2024/02/28 05:09:31;;;;;;;40.53;22.95;;;0.80;99.90;;;;;;477013;249;27391;-72
2024/02/28 05:11:33;;;;;;;43.60;24.35;;;0.90;99.90;;;;;;468127;251;27453;-72
2024/02/28 05:13:34;;;;;;;39.72;21.50;;;0.90;99.90;;;;;;476969;249;27415;-72
2024/02/28 05:15:35;;;;;;;41.47;23.00;;;0.90;99.90;;;;;;468115;251;27615;-73
2024/02/28 05:17:37;;;;;;;46.00;23.70;;;1.00;99.90;;;;;;476973;249;27441;-74
2024/02/28 05:19:39;;;;;;;45.28;25.10;;;1.00;99.90;;;;;;468097;251;27945;-73
2024/02/28 05:21:39;;;;;;;59.42;26.25;;;1.10;99.90;;;;;;476948;249;28028;-72
2024/02/28 05:23:40;;;;;;;55.00;26.85;;;1.10;99.90;;;;;;468068;251;27504;-72
2024/02/28 05:25:42;;;;;;;55.15;26.55;;;1.30;99.90;;;;;;476963;249;27427;-72
2024/02/28 05:27:43;;;;;;;65.07;27.90;;;1.40;99.90;;;;;;468083;251;27457;-73
2024/02/28 05:29:44;;;;;;;63.30;29.23;;;1.40;99.90;;;;;;477000;249;27426;-72
2024/02/28 05:31:45;;;;;;;63.13;29.17;;;1.40;99.90;;;;;;468090;253;27477;-73
2024/02/28 05:33:47;;;;;;;89.28;30.35;;;1.40;99.90;;;;;;476904;249;27970;-72
2024/02/28 05:35:48;;;;;;;61.92;28.60;;;1.30;99.90;;;;;;468158;251;28020;-72
2024/02/28 05:37:49;;;;;;;60.95;27.52;;;1.30;99.90;;;;;;476952;249;27481;-73
2024/02/28 05:39:50;;;;;;;58.47;28.55;;;1.20;99.90;;;;;;468100;251;27464;-72
2024/02/28 05:41:52;;;;;;;55.05;28.23;;;1.30;99.90;;;;;;476945;249;27438;-73
2024/02/28 05:43:53;;;;;;;65.07;29.60;;;1.30;99.90;;;;;;468110;251;27944;-73
2024/02/28 05:45:54;;;;;;;91.78;33.40;;;1.30;99.90;;;;;;476992;249;27391;-72
2024/02/28 05:47:55;;;;;;;73.68;29.23;;;1.40;99.90;;;;;;468079;251;27485;-73
2024/02/28 05:49:58;;;;;;;67.95;29.05;;;1.50;99.90;;;;;;476965;249;27990;-73
2024/02/28 05:51:58;;;;;;;59.53;28.65;;;1.50;99.90;;;;;;468101;251;29112;-72
2024/02/28 05:53:59;;;;;;;64.03;28.33;;;1.50;99.90;;;;;;477017;249;27458;-73
2024/02/28 05:56:00;;;;;;;104.72;35.10;;;1.50;99.90;;;;;;468098;251;27506;-72
2024/02/28 05:58:02;;;;;;;141.25;36.58;;;1.60;99.90;;;;;;476925;249;27458;-73
2024/02/28 06:00:09;;;;;;;169.32;37.10;;;1.60;99.90;;;;;;468117;251;27446;-72
2024/02/28 06:02:04;;;;;;;73.22;31.62;;;1.60;99.90;;;;;;476631;249;27418;-72
2024/02/28 06:04:05;;;;;;;81.15;30.98;;;1.60;99.90;;;;;;468100;251;28038;-73
2024/02/28 06:06:07;;;;;;;73.18;29.42;;;1.60;99.90;;;;;;476975;249;27946;-71
2024/02/28 06:08:08;;;;;;;79.35;30.65;;;1.60;99.90;;;;;;468087;251;27566;-72
2024/02/28 06:10:10;;;;;;;112.18;29.67;;;1.60;99.90;;;;;;477006;249;27437;-74
2024/02/28 06:12:10;;;;;;;95.18;29.15;;;1.60;99.90;;;;;;468104;251;27427;-73
2024/02/28 06:14:12;;;;;;;78.75;31.52;;;1.50;99.90;;;;;;476973;249;27565;-73
2024/02/28 06:16:13;;;;;;;83.43;29.33;;;1.50;99.90;;;;;;468109;251;27425;-72
2024/02/28 06:18:14;;;;;;;82.10;28.60;;;1.60;99.90;;;;;;476947;249;27454;-72
2024/02/28 06:20:15;;;;;;;87.82;29.23;;;1.60;99.90;;;;;;468123;251;28053;-72
2024/02/28 06:22:18;;;;;;;186.35;32.72;;;1.60;99.90;;;;;;476999;249;27867;-72
2024/02/28 06:24:18;;;;;;;75.20;29.95;;;1.60;99.90;;;;;;468000;254;27628;-73
2024/02/28 06:26:19;;;;;;;136.90;34.30;;;1.60;99.90;;;;;;476957;249;27430;-72
2024/02/28 06:28:21;;;;;;;65.05;26.55;;;1.60;99.90;;;;;;468077;251;27457;-72
2024/02/28 06:30:22;;;;;;;102.25;29.00;;;1.70;99.90;;;;;;476982;249;27567;-73
2024/02/28 06:32:23;;;;;;;74.82;28.30;;;1.80;99.90;;;;;;468083;251;27550;-72
2024/02/28 06:34:24;;;;;;;105.87;29.33;;;1.80;99.90;;;;;;476937;249;28674;-72
2024/02/28 06:36:26;;;;;;;67.50;28.48;;;1.90;99.90;;;;;;468111;251;28137;-74
2024/02/28 06:38:27;;;;;;;58.58;25.30;;;1.90;99.90;;;;;;476970;249;27391;-73
2024/02/28 06:40:29;;;;;;;67.43;26.55;;;2.00;99.90;;;;;;468101;251;27470;-73
2024/02/28 06:42:29;;;;;;;163.23;29.85;;;2.00;99.90;;;;;;476980;249;27395;-72
2024/02/28 06:44:31;;;;;;;204.70;31.80;;;2.00;99.90;;;;;;468081;251;27547;-72
2024/02/28 06:46:32;;;;;;;110.53;26.62;;;1.90;99.90;;;;;;477011;249;27478;-73
2024/02/28 06:48:33;;;;;;;62.45;26.42;;;1.80;99.90;;;;;;468065;251;27875;-72
2024/02/28 06:50:34;;;;;;;243.23;31.35;;;1.90;99.90;;;;;;476959;249;28048;-73
2024/02/28 06:52:36;;;;;;;166.80;32.50;;;1.80;99.90;;;;;;468087;251;27510;-72
2024/02/28 06:54:37;;;;;;;88.50;25.20;;;1.80;99.90;;;;;;476989;249;27414;-72
2024/02/28 06:56:38;;;;;;;81.10;25.73;;;1.80;99.90;;;;;;468110;251;27503;-73
2024/02/28 06:58:39;;;;;;;66.20;25.25;;;1.80;99.90;;;;;;476942;249;27422;-72
2024/02/28 07:00:41;;;;;;;73.35;27.48;;;1.80;99.90;;;;;;468084;251;27536;-72
2024/02/28 07:02:42;;;;;;;132.43;30.35;;;1.90;99.90;;;;;;476987;249;28024;-74
2024/02/28 07:04:43;;;;;;;161.45;29.73;;;1.90;99.90;;;;;;468096;251;27950;-72
2024/02/28 07:06:44;;;;;;;182.27;29.33;;;2.00;99.90;;;;;;477002;249;27430;-73
2024/02/28 07:08:46;;;;;;;134.90;28.98;;;2.00;99.90;;;;;;468063;251;27415;-72
2024/02/28 07:10:49;;;;;;;71.75;25.75;;;2.10;99.90;;;;;;477003;249;27438;-72
2024/02/28 07:12:48;;;;;;;123.97;27.73;;;2.10;99.90;;;;;;468030;254;27449;-74
2024/02/28 07:14:49;;;;;;;250.27;32.10;;;2.20;99.90;;;;;;476995;249;27894;-72
2024/02/28 07:16:54;;;;;;;108.93;26.25;;;2.10;99.90;;;;;;468038;251;27954;-73
2024/02/28 07:18:55;;;;;;;215.35;34.20;;;2.20;99.90;;;;;;476991;249;27462;-72
2024/02/28 07:20:56;;;;;;;233.20;32.40;;;2.40;99.90;;;;;;468149;251;27945;-74
2024/02/28 07:22:57;;;;;;;80.97;25.17;;;2.30;99.90;;;;;;477026;249;27470;-72
2024/02/28 07:24:59;;;;;;;53.70;22.20;;;2.50;99.90;;;;;;468106;254;27486;-73
2024/02/28 07:27:00;;;;;;;52.17;23.15;;;2.50;99.90;;;;;;476967;249;27411;-72
2024/02/28 07:29:01;;;;;;;98.43;27.20;;;2.60;99.90;;;;;;468116;251;27530;-73
2024/02/28 07:31:02;;;;;;;59.83;23.38;;;2.70;99.90;;;;;;477032;249;27529;-73
2024/02/28 07:33:04;;;;;;;112.68;27.40;;;2.70;99.90;;;;;;468096;251;27429;-72
2024/02/28 07:35:05;;;;;;;65.20;23.90;;;2.70;99.90;;;;;;476969;249;27993;-72
2024/02/28 07:37:06;;;;;;;74.35;25.10;;;2.80;99.90;;;;;;468078;251;28649;-72
2024/02/28 07:39:12;;;;;;;77.32;25.90;;;2.80;99.90;;;;;;477004;249;27399;-73
2024/02/28 07:41:09;;;;;;;75.90;26.62;;;2.70;99.90;;;;;;467801;254;27493;-73
2024/02/28 07:43:10;;;;;;;75.25;23.67;;;2.70;99.90;;;;;;476981;249;27407;-72
2024/02/28 07:45:11;;;;;;;63.13;25.52;;;2.70;99.90;;;;;;468066;251;27449;-72
2024/02/28 07:47:14;;;;;;;56.40;23.90;;;2.80;99.90;;;;;;476946;249;27450;-74
2024/02/28 07:49:14;;;;;;;86.07;25.42;;;2.90;99.90;;;;;;468026;254;27905;-72
2024/02/28 07:51:15;;;;;;;56.85;24.70;;;3.00;99.90;;;;;;476975;249;28053;-72
2024/02/28 07:53:16;;;;;;;59.85;25.95;;;3.00;99.90;;;;;;468072;251;27919;-72
2024/02/28 07:55:19;;;;;;;130.75;27.70;;;3.00;99.90;;;;;;476968;249;27517;-73
2024/02/28 07:57:19;;;;;;;47.38;24.85;;;3.00;99.90;;;;;;467992;254;27470;-75
2024/02/28 07:59:20;;;;;;;61.10;25.83;;;3.00;99.90;;;;;;476964;249;27391;-72
2024/02/28 08:01:22;;;;;;;75.10;26.08;;;3.10;99.90;;;;;;468078;251;27450;-72
2024/02/28 08:03:23;;;;;;;50.97;23.50;;;3.00;99.90;;;;;;476952;249;27478;-73
2024/02/28 08:05:24;;;;;;;44.75;22.87;;;3.10;99.90;;;;;;468083;251;27887;-72
2024/02/28 08:07:25;;;;;;;52.67;25.42;;;3.20;99.90;;;;;;476961;249;27945;-73
2024/02/28 08:09:26;;;;;;;49.17;23.83;;;3.20;99.90;;;;;;468071;251;27567;-72
2024/02/28 08:11:28;;;;;;;44.30;24.80;;;3.20;99.90;;;;;;476956;249;27461;-72
2024/02/28 08:13:29;;;;;;;55.50;25.95;;;3.10;99.90;;;;;;468124;251;27798;-73
2024/02/28 08:15:30;;;;;;;56.88;23.77;;;3.10;99.90;;;;;;476977;249;27423;-72
2024/02/28 08:17:31;;;;;;;47.80;23.98;;;3.10;99.90;;;;;;468035;251;27449;-72
2024/02/28 08:19:35;;;;;;;57.95;27.30;;;3.00;99.90;;;;;;476953;249;27863;-72
2024/02/28 08:21:34;;;;;;;56.45;23.55;;;3.00;99.90;;;;;;467992;254;27943;-73
2024/02/28 08:23:35;;;;;;;57.22;28.42;;;3.00;99.90;;;;;;477010;249;27426;-72
2024/02/28 08:25:37;;;;;;;46.85;23.55;;;3.20;99.90;;;;;;468082;251;27523;-72
2024/02/28 08:27:38;;;;;;;44.25;23.48;;;3.30;99.90;;;;;;476927;249;27430;-72
2024/02/28 08:29:43;;;;;;;42.53;24.58;;;3.50;99.90;;;;;;468071;251;27470;-71
2024/02/28 08:31:40;;;;;;;45.20;24.10;;;3.80;99.90;;;;;;476762;249;27453;-73
2024/02/28 08:33:41;;;;;;;42.30;22.25;;;4.10;99.90;;;;;;468089;251;27941;-73
2024/02/28 08:35:43;;;;;;;52.38;26.73;;;4.10;99.90;;;;;;476953;249;27953;-72
2024/02/28 08:37:44;;;;;;;49.08;25.10;;;4.10;99.90;;;;;;468063;251;27513;-73
2024/02/28 08:39:45;;;;;;;53.35;25.40;;;4.00;99.90;;;;;;477016;249;27570;-75
2024/02/28 08:41:47;;;;;;;57.53;26.17;;;3.90;99.90;;;;;;468111;251;27426;-72
2024/02/28 08:43:48;;;;;;;45.70;23.50;;;3.80;99.90;;;;;;476969;249;27466;-73
2024/02/28 08:45:51;;;;;;;50.97;26.17;;;3.70;99.90;;;;;;468061;251;28049;-73
2024/02/28 08:47:50;;;;;;;40.30;23.58;;;3.80;99.90;;;;;;476854;249;27929;-73
2024/02/28 08:49:52;;;;;;;49.33;24.65;;;3.80;99.90;;;;;;468115;251;27446;-74
2024/02/28 08:51:53;;;;;;;57.78;27.50;;;3.90;99.90;;;;;;476986;249;27394;-72
2024/02/28 08:53:55;;;;;;;44.72;24.45;;;3.90;99.90;;;;;;468062;251;27473;-73
2024/02/28 08:55:55;;;;;;;54.00;25.05;;;4.00;99.90;;;;;;476939;249;27521;-73
2024/02/28 08:57:57;;;;;;;44.10;24.65;;;3.90;99.90;;;;;;468074;251;27886;-73
2024/02/28 08:59:58;;;;;;;38.03;21.90;;;4.00;99.90;;;;;;476974;249;27949;-72
2024/02/28 09:01:59;;;;;;;38.78;22.48;;;4.20;99.90;;;;;;468111;251;27529;-73
2024/02/28 09:04:00;;;;;;;43.75;23.85;;;4.30;99.90;;;;;;476927;249;27517;-72
2024/02/28 09:06:02;;;;;;;41.97;23.55;;;4.20;99.90;;;;;;468119;251;27785;-74
2024/02/28 09:08:03;;;;;;;40.47;22.50;;;4.30;99.90;;;;;;476954;249;27403;-72
2024/02/28 09:10:05;;;;;;;46.25;23.92;;;4.30;99.90;;;;;;468092;251;27999;-73
2024/02/28 09:12:05;;;;;;;38.15;21.87;;;4.20;99.90;;;;;;476936;249;28022;-72
2024/02/28 09:14:07;;;;;;;40.08;23.25;;;4.20;99.90;;;;;;468068;254;27437;-74
2024/02/28 09:16:08;;;;;;;44.85;24.15;;;4.10;99.90;;;;;;476999;249;27431;-73
2024/02/28 09:18:09;;;;;;;48.17;24.98;;;4.20;99.90;;;;;;468071;251;27476;-72
2024/02/28 09:20:10;;;;;;;42.92;23.95;;;4.30;99.90;;;;;;476963;249;27474;-73
2024/02/28 09:22:12;;;;;;;40.88;23.60;;;4.50;99.90;;;;;;468103;251;28153;-72
2024/02/28 09:24:13;;;;;;;41.65;23.55;;;4.60;99.90;;;;;;476965;249;27876;-72
2024/02/28 09:26:14;;;;;;;43.75;23.92;;;4.70;99.90;;;;;;468123;251;27542;-73
2024/02/28 09:28:16;;;;;;;42.53;22.50;;;4.70;99.90;;;;;;476948;249;27395;-73
2024/02/28 09:30:18;;;;;;;43.17;23.50;;;4.50;99.90;;;;;;468089;251;27579;-72
2024/02/28 09:32:18;;;;;;;44.15;24.77;;;4.50;99.90;;;;;;476975;249;27946;-73
2024/02/28 09:34:19;;;;;;;42.72;23.45;;;4.40;99.90;;;;;;468070;251;27939;-73
2024/02/28 09:36:21;;;;;;;44.85;24.70;;;4.60;99.90;;;;;;476972;249;27426;-73
2024/02/28 09:38:23;;;;;;;43.35;24.10;;;4.40;99.90;;;;;;468037;251;27411;-73
2024/02/28 09:40:23;;;;;;;48.55;24.85;;;4.50;99.90;;;;;;476949;249;27410;-72
2024/02/28 09:42:24;;;;;;;42.20;23.50;;;4.40;99.90;;;;;;468103;251;27565;-73
2024/02/28 09:44:26;;;;;;;45.22;24.52;;;4.50;99.90;;;;;;476920;249;27850;-73
2024/02/28 09:46:27;;;;;;;38.22;23.25;;;4.60;99.90;;;;;;467915;251;27512;-72
2024/02/28 09:48:31;;;;;;;40.00;22.48;;;4.60;99.90;;;;;;476986;249;27445;-73
2024/02/28 09:50:33;;;;;;;40.12;20.77;;;5.00;99.90;;;;;;468150;251;28015;-73
2024/02/28 09:52:35;;;;;;;36.72;22.17;;;5.10;99.90;;;;;;477013;249;27874;-73
2024/02/28 09:54:35;;;;;;;42.50;24.20;;;5.20;99.90;;;;;;467948;254;27458;-73
2024/02/28 09:56:36;;;;;;;38.40;22.62;;;5.10;99.90;;;;;;477025;249;27530;-74
2024/02/28 09:58:38;;;;;;;42.03;23.92;;;5.00;99.90;;;;;;468064;251;27497;-73
2024/02/28 10:00:39;;;;;;;42.28;23.92;;;4.80;99.90;;;;;;476957;249;27915;-73
2024/02/28 10:02:40;;;;;;;41.53;24.50;;;4.80;99.90;;;;;;468116;251;28746;-72
2024/02/28 10:04:41;;;;;;;39.92;22.83;;;5.00;99.90;;;;;;477001;249;27398;-73
2024/02/28 10:06:43;;;;;;;41.00;23.50;;;4.90;99.90;;;;;;468011;254;27488;-73
2024/02/28 10:08:47;;;;;;;46.42;26.05;;;4.80;99.90;;;;;;476894;249;27402;-72
2024/02/28 10:10:46;;;;;;;42.03;23.65;;;4.70;99.90;;;;;;467859;254;27545;-73
2024/02/28 10:12:47;;;;;;;46.13;25.15;;;4.90;99.90;;;;;;476994;249;27921;-73
2024/02/28 10:14:48;;;;;;;39.55;23.95;;;5.00;99.90;;;;;;468093;251;27519;-73
2024/02/28 10:16:49;;;;;;;43.40;25.85;;;4.90;99.90;;;;;;476942;249;27446;-73
2024/02/28 10:18:50;;;;;;;40.38;23.00;;;4.80;99.90;;;;;;476396;249;27382;-73
2024/02/28 10:20:52;;;;;;;44.70;25.45;;;4.80;99.90;;;;;;476990;249;27446;-73